Search for airport 
image banner adimage banner adimage banner ad
image banner ad

L65 - Perris Valley

Located in Perris, United States

ICAO - L65, IATA -

Data provided by Airmate  

General information

Coordinates: N33°45'53" W117°13'8"
Elevation is 1413 feet MSL.
Magnetic variation is 14° East
View others Airports in California

Operational data

Special qualification required
Current time UTC:
Current local time:
Weather at : KRIV - March Arb ( 14 km )
METAR: KRIV 270456Z AUTO 33004KT 10SM FEW180 21/17 A3000 RMK AO2 SLP148 T02070167
TAF: TAF KRIV 270406Z 2704/2810 30006KT 9999 FEW120 SCT150 QNH2996INS BECMG 2712/2713 VRB04KT 4800 BR FEW003 FEW120 QNH2997INS BECMG 2714/2715 VRB06KT 9999 NSW FEW120 QNH3000INS BECMG 2718/2719 31009KT 9999 FEW120 SCT250 QNH2996INS TS OMTNS NE AND SE TEMPO 2721/2802 32012G18KT BECMG 2803/2804 31006KT 9999 FEW250 QNH3000INS TX34/2722Z TN19/2713Z
View NOTAMs / SUP AIP / TFR affecting this airport [VIEW]
Communications frequencies: [VIEW]

Runways:

RWY identifierQFULength (ft)Width (ft)SurfaceLDA (ft)
15510050ASPH
33510050ASPH

Airport contact information

Address: Perris United States

Satellite view of L65